createdAt,value
2023-05-02T00:01:20.812Z,10.30
2023-05-02T00:03:47.991Z,10.20
2023-05-02T00:06:14.981Z,10.20
2023-05-02T00:08:41.898Z,10.10
2023-05-02T00:11:08.758Z,10.20
2023-05-02T00:13:35.588Z,10.40
2023-05-02T00:16:02.416Z,10.40
2023-05-02T00:18:29.269Z,10.50
2023-05-02T00:20:57.183Z,10.50
2023-05-02T00:23:24.237Z,10.60
2023-05-02T00:25:51.147Z,10.70
2023-05-02T00:28:18.394Z,10.70
2023-05-02T00:30:46.626Z,10.80
2023-05-02T00:33:15.150Z,10.90
2023-05-02T00:35:42.308Z,10.90
2023-05-02T00:38:09.417Z,10.90
2023-05-02T00:40:53.159Z,11.00
2023-05-02T00:43:20.739Z,11.00
2023-05-02T00:45:48.185Z,11.10
2023-05-02T00:48:15.238Z,11.00
2023-05-02T00:50:43.505Z,10.90
2023-05-02T00:53:11.126Z,11.00
2023-05-02T00:55:38.428Z,11.10
2023-05-02T00:58:14.023Z,11.10
2023-05-02T01:01:18.835Z,11.20
2023-05-02T01:04:19.206Z,11.20
2023-05-02T01:07:09.611Z,11.20
2023-05-02T01:10:06.179Z,11.10
2023-05-02T01:12:43.216Z,11.10
2023-05-02T01:15:15.971Z,11.10
2023-05-02T01:17:45.960Z,11.20
2023-05-02T01:20:20.263Z,11.30
2023-05-02T01:22:48.400Z,11.20
2023-05-02T01:25:37.914Z,11.20
2023-05-02T01:28:04.723Z,11.20
2023-05-02T01:30:34.288Z,11.20
2023-05-02T01:33:03.204Z,11.10
2023-05-02T01:35:32.246Z,11.20
2023-05-02T01:38:01.421Z,11.20
2023-05-02T01:40:29.149Z,11.20
2023-05-02T01:42:58.356Z,11.20
2023-05-02T01:45:26.572Z,11.20
2023-05-02T01:47:55.110Z,11.20
2023-05-02T01:50:24.739Z,11.20
2023-05-02T01:52:54.774Z,11.20
2023-05-02T01:55:22.298Z,11.10
2023-05-02T01:57:52.037Z,11.30
2023-05-02T02:00:20.900Z,11.20
2023-05-02T02:02:50.092Z,11.20
2023-05-02T02:05:19.996Z,11.30
2023-05-02T02:07:47.006Z,11.20
2023-05-02T02:10:14.113Z,11.20
2023-05-02T02:12:45.399Z,11.20
2023-05-02T02:15:25.795Z,11.20
2023-05-02T02:18:01.386Z,11.20
2023-05-02T02:20:32.799Z,11.10
2023-05-02T02:23:03.269Z,11.20
2023-05-02T02:25:30.513Z,11.20
2023-05-02T02:27:58.164Z,11.20
2023-05-02T02:30:24.969Z,11.20
2023-05-02T02:32:52.465Z,11.20
2023-05-02T02:35:19.753Z,11.20
2023-05-02T02:37:54.894Z,11.20
2023-05-02T02:40:31.950Z,11.20
2023-05-02T02:43:32.817Z,11.20
2023-05-02T02:46:09.562Z,11.20
2023-05-02T02:48:53.871Z,11.30
2023-05-02T02:51:28.640Z,11.30
2023-05-02T02:54:22.949Z,11.20
2023-05-02T02:57:02.807Z,11.20
2023-05-02T02:59:34.185Z,11.30
2023-05-02T03:02:09.947Z,11.30
2023-05-02T03:04:40.910Z,11.30
2023-05-02T03:07:08.220Z,11.20
2023-05-02T03:09:44.533Z,11.10
2023-05-02T03:12:11.724Z,11.20
2023-05-02T03:14:39.452Z,11.10
2023-05-02T03:17:08.559Z,11.20
2023-05-02T03:19:35.972Z,11.10
2023-05-02T03:22:03.074Z,11.10
2023-05-02T03:24:30.088Z,11.10
2023-05-02T03:26:59.227Z,11.20
2023-05-02T03:29:26.949Z,11.10
2023-05-02T03:31:53.788Z,11.10
2023-05-02T03:34:22.379Z,11.10
2023-05-02T03:36:49.464Z,11.10
2023-05-02T03:39:16.553Z,11.00
2023-05-02T03:41:44.028Z,11.10
2023-05-02T03:44:11.171Z,11.10
2023-05-02T03:46:38.336Z,11.00
2023-05-02T03:49:05.238Z,11.00
2023-05-02T03:51:33.988Z,11.00
2023-05-02T03:54:02.926Z,11.00
2023-05-02T03:56:29.835Z,11.00
2023-05-02T03:58:56.687Z,11.00
2023-05-02T04:01:23.867Z,11.00
2023-05-02T04:03:52.129Z,10.90
2023-05-02T04:06:18.990Z,10.90
2023-05-02T04:08:45.952Z,11.00
2023-05-02T04:11:12.816Z,10.90
2023-05-02T04:13:39.654Z,10.90
2023-05-02T04:16:06.630Z,10.90
2023-05-02T04:18:33.453Z,11.00
2023-05-02T04:21:00.421Z,11.00
2023-05-02T04:23:27.319Z,10.90
2023-05-02T04:25:57.380Z,10.90
2023-05-02T04:28:24.298Z,10.80
2023-05-02T04:30:51.740Z,10.80
2023-05-02T04:33:18.882Z,10.90
2023-05-02T04:35:46.264Z,10.80
2023-05-02T04:38:14.605Z,10.80
2023-05-02T04:40:41.964Z,10.90
2023-05-02T04:43:08.817Z,10.90
2023-05-02T04:45:36.877Z,10.90
2023-05-02T04:48:04.517Z,10.90
2023-05-02T04:50:32.525Z,10.90
2023-05-02T04:52:59.612Z,10.80
2023-05-02T04:55:26.545Z,10.80
2023-05-02T04:57:53.400Z,10.70
2023-05-02T05:00:20.411Z,10.70
2023-05-02T05:02:47.613Z,10.70
2023-05-02T05:05:14.605Z,10.80
2023-05-02T05:07:41.495Z,10.80
2023-05-02T05:10:09.031Z,10.80
2023-05-02T05:12:35.902Z,10.80
2023-05-02T05:15:02.744Z,10.90
2023-05-02T05:17:29.597Z,10.90
2023-05-02T05:33:51.833Z,10.90
2023-05-02T05:36:19.997Z,10.70
2023-05-02T05:38:54.221Z,10.60
2023-05-02T05:41:58.973Z,10.50
2023-05-02T05:44:29.038Z,10.60
2023-05-02T05:47:01.478Z,10.70
2023-05-02T05:49:53.561Z,10.80
2023-05-02T05:52:20.700Z,10.90
2023-05-02T05:54:53.788Z,11.00
2023-05-02T05:57:20.888Z,11.00
2023-05-02T05:59:47.928Z,11.10
2023-05-02T06:05:07.268Z,11.20
2023-05-02T06:07:34.277Z,11.30
2023-05-02T06:10:01.585Z,11.40
2023-05-02T06:12:28.855Z,11.50
2023-05-02T06:14:56.181Z,11.70
2023-05-02T06:17:25.586Z,12.20
2023-05-02T06:19:52.569Z,12.50
2023-05-02T06:22:19.682Z,12.80
2023-05-02T06:24:46.480Z,12.80
2023-05-02T06:27:13.309Z,12.60
2023-05-02T06:29:40.139Z,12.50
2023-05-02T06:32:07.074Z,13.00
2023-05-02T06:34:34.196Z,14.60
2023-05-02T06:37:01.350Z,16.50
2023-05-02T06:39:28.258Z,18.30
2023-05-02T06:41:58.636Z,19.10
2023-05-02T06:44:25.750Z,18.40
2023-05-02T06:46:52.593Z,17.00
2023-05-02T06:49:19.456Z,15.70
2023-05-02T06:51:46.329Z,14.70
2023-05-02T06:54:13.314Z,13.90
2023-05-02T06:56:40.256Z,13.10
2023-05-02T06:59:07.229Z,12.70
2023-05-02T07:01:34.159Z,12.60
2023-05-02T07:04:02.096Z,12.60
2023-05-02T07:06:29.004Z,12.80
2023-05-02T07:08:55.862Z,12.80
2023-05-02T07:11:24.337Z,12.60
2023-05-02T07:13:51.193Z,12.60
2023-05-02T07:16:18.137Z,12.50
2023-05-02T07:18:48.540Z,12.60
2023-05-02T07:21:15.436Z,12.60
2023-05-02T07:23:42.623Z,12.70
2023-05-02T07:26:09.502Z,12.90
2023-05-02T07:28:36.499Z,13.20
2023-05-02T07:31:03.633Z,13.70
2023-05-02T07:33:30.549Z,13.80
2023-05-02T07:35:57.470Z,14.10
2023-05-02T07:38:24.341Z,14.10
2023-05-02T07:40:51.148Z,14.00
2023-05-02T07:43:17.978Z,13.70
2023-05-02T07:45:44.939Z,13.30
2023-05-02T07:48:11.954Z,12.90
2023-05-02T07:50:38.937Z,12.60
2023-05-02T07:53:05.850Z,12.60
2023-05-02T07:55:33.421Z,12.50
2023-05-02T07:58:00.739Z,12.50
2023-05-02T08:00:27.758Z,12.40
2023-05-02T08:02:54.704Z,12.60
2023-05-02T08:05:21.747Z,12.50
2023-05-02T08:07:48.595Z,12.30
2023-05-02T08:10:15.514Z,12.00
2023-05-02T08:12:42.640Z,11.70
2023-05-02T08:15:12.311Z,11.50
2023-05-02T08:17:39.194Z,11.40
2023-05-02T08:20:06.709Z,11.30
2023-05-02T08:22:33.849Z,11.30
2023-05-02T08:25:00.782Z,11.40
2023-05-02T08:27:27.985Z,11.50
2023-05-02T08:29:54.830Z,11.60
2023-05-02T08:32:22.536Z,11.50
2023-05-02T08:34:49.566Z,11.30
2023-05-02T08:37:16.549Z,11.20
2023-05-02T08:39:43.372Z,11.20
2023-05-02T08:42:10.403Z,11.40
2023-05-02T08:44:37.952Z,11.40
2023-05-02T08:47:06.885Z,11.50
2023-05-02T08:49:36.099Z,11.50
2023-05-02T08:52:04.563Z,11.60
2023-05-02T08:54:32.148Z,11.70
2023-05-02T08:57:02.485Z,11.70
2023-05-02T08:59:30.004Z,11.80
2023-05-02T09:02:04.453Z,11.90
2023-05-02T09:04:35.106Z,12.00
2023-05-02T09:07:02.282Z,12.20
2023-05-02T09:09:31.834Z,12.10
2023-05-02T09:11:58.925Z,12.20
2023-05-02T09:14:26.656Z,12.30
2023-05-02T09:17:00.165Z,12.30
2023-05-02T09:19:27.575Z,12.30
2023-05-02T09:22:01.569Z,12.40
2023-05-02T09:24:29.297Z,12.60
2023-05-02T09:27:03.051Z,12.60
2023-05-02T09:29:36.212Z,13.00
2023-05-02T09:32:04.765Z,13.50
2023-05-02T09:34:31.940Z,13.30
2023-05-02T09:36:58.846Z,13.30
2023-05-02T09:39:29.419Z,13.50
2023-05-02T09:41:57.034Z,13.70
2023-05-02T09:44:26.350Z,14.10
2023-05-02T09:47:02.311Z,14.30
2023-05-02T09:49:46.654Z,14.30
2023-05-02T09:52:18.542Z,14.30
2023-05-02T09:54:46.852Z,14.60
2023-05-02T09:57:14.136Z,14.30
2023-05-02T09:59:41.410Z,14.10
2023-05-02T10:02:11.708Z,13.90
2023-05-02T10:04:39.775Z,13.70
2023-05-02T10:07:10.568Z,13.50
2023-05-02T10:09:43.410Z,13.30
2023-05-02T10:12:12.649Z,13.30
2023-05-02T10:14:50.943Z,13.30
2023-05-02T10:17:31.929Z,13.50
2023-05-02T10:20:05.113Z,13.90
2023-05-02T10:22:34.643Z,14.20
2023-05-02T10:25:03.851Z,14.30
2023-05-02T10:27:32.621Z,14.20
2023-05-02T10:30:00.968Z,14.00
2023-05-02T10:32:29.777Z,14.00
2023-05-02T10:35:04.228Z,13.80
2023-05-02T10:37:34.102Z,13.50
2023-05-02T10:40:01.391Z,13.70
2023-05-02T10:42:30.417Z,13.90
2023-05-02T10:44:57.523Z,14.00
2023-05-02T10:47:27.294Z,13.70
2023-05-02T10:49:57.471Z,13.30
2023-05-02T10:52:33.026Z,13.20
2023-05-02T10:55:21.011Z,13.50
2023-05-02T10:58:06.696Z,13.90
2023-05-02T11:00:34.481Z,14.30
2023-05-02T11:03:02.374Z,14.80
2023-05-02T11:05:29.637Z,14.70
2023-05-02T11:08:15.771Z,14.40
2023-05-02T11:10:43.214Z,14.50
2023-05-02T11:13:10.026Z,14.60
2023-05-02T11:15:42.907Z,14.70
2023-05-02T11:18:14.767Z,14.90
2023-05-02T11:20:45.664Z,15.10
2023-05-02T11:23:21.841Z,14.90
2023-05-02T11:25:54.241Z,14.80
2023-05-02T11:28:41.070Z,15.10
2023-05-02T11:31:31.396Z,14.90
2023-05-02T11:34:03.106Z,14.70
2023-05-02T11:36:31.050Z,14.60
2023-05-02T11:38:57.918Z,14.30
2023-05-02T11:41:51.104Z,14.40
2023-05-02T11:44:18.121Z,14.30
2023-05-02T11:46:45.197Z,14.60
2023-05-02T11:49:15.123Z,14.70
2023-05-02T11:51:42.367Z,14.60
2023-05-02T11:54:10.364Z,14.40
2023-05-02T11:56:37.314Z,14.80
2023-05-02T11:59:05.040Z,14.90
2023-05-02T12:01:31.934Z,14.90
2023-05-02T12:04:08.638Z,14.80
2023-05-02T12:06:35.905Z,14.60
2023-05-02T12:09:17.283Z,14.60
2023-05-02T12:11:44.155Z,15.00
2023-05-02T12:14:11.630Z,15.00
2023-05-02T12:16:38.664Z,15.00
2023-05-02T12:21:37.734Z,14.00
2023-05-02T12:24:04.927Z,14.00
2023-05-02T12:26:33.774Z,14.00
2023-05-02T12:29:02.870Z,14.00
2023-05-02T12:31:31.697Z,14.10
2023-05-02T12:34:00.551Z,14.00
2023-05-02T12:36:33.678Z,14.10
2023-05-02T12:39:03.958Z,14.10
2023-05-02T12:41:38.557Z,14.60
2023-05-02T12:44:07.453Z,14.80
2023-05-02T12:46:34.445Z,14.60
2023-05-02T12:49:09.969Z,14.40
2023-05-02T12:51:38.237Z,14.10
2023-05-02T12:54:05.594Z,13.90
2023-05-02T12:56:43.837Z,13.80
2023-05-02T12:59:26.105Z,13.40
2023-05-02T13:01:53.045Z,13.20
2023-05-02T13:04:20.092Z,13.00
2023-05-02T13:06:47.213Z,12.80
2023-05-02T13:09:14.266Z,12.80
2023-05-02T13:11:42.674Z,12.80
2023-05-02T13:14:11.638Z,12.80
2023-05-02T13:16:38.840Z,12.80
2023-05-02T13:21:31.804Z,12.90
2023-05-02T13:23:59.078Z,13.00
2023-05-02T13:26:25.919Z,13.10
2023-05-02T13:28:52.766Z,13.30
2023-05-02T13:31:19.654Z,13.40
2023-05-02T13:33:46.558Z,13.60
2023-05-02T13:36:13.391Z,13.60
2023-05-02T13:38:40.368Z,13.50
2023-05-02T13:41:07.165Z,13.20
2023-05-02T13:43:34.134Z,13.20
2023-05-02T13:46:01.035Z,13.30
2023-05-02T13:48:27.913Z,13.40
2023-05-02T13:50:54.803Z,13.40
2023-05-02T13:53:21.684Z,13.60
2023-05-02T13:55:48.517Z,13.90
2023-05-02T13:58:15.410Z,13.90
2023-05-02T14:00:42.352Z,13.90
2023-05-02T14:03:11.477Z,13.80
2023-05-02T14:05:41.203Z,13.60
2023-05-02T14:08:08.041Z,13.50
2023-05-02T14:10:36.523Z,13.50
2023-05-02T14:13:03.883Z,13.60
2023-05-02T14:15:30.920Z,13.70
2023-05-02T14:17:58.044Z,13.60
2023-05-02T14:20:25.078Z,13.50
2023-05-02T14:22:52.134Z,13.50
2023-05-02T14:25:20.676Z,13.50
2023-05-02T14:27:47.810Z,13.40
2023-05-02T14:30:14.776Z,13.30
2023-05-02T14:32:41.671Z,13.30
2023-05-02T14:35:09.143Z,13.40
2023-05-02T14:37:36.004Z,13.40
2023-05-02T14:40:03.171Z,13.40
2023-05-02T14:42:30.464Z,13.40
2023-05-02T14:44:59.518Z,13.50
2023-05-02T14:47:30.959Z,13.50
2023-05-02T14:49:57.993Z,13.40
2023-05-02T14:52:24.915Z,13.40
2023-05-02T14:54:51.802Z,13.50
2023-05-02T14:57:18.663Z,13.40
2023-05-02T14:59:45.737Z,13.40
2023-05-02T15:02:12.671Z,13.60
2023-05-02T15:04:39.708Z,13.70
2023-05-02T15:07:07.133Z,13.70
2023-05-02T15:09:34.128Z,13.70
2023-05-02T15:12:01.022Z,13.90
2023-05-02T15:14:27.917Z,13.90
2023-05-02T15:16:55.010Z,14.10
2023-05-02T15:19:28.167Z,14.10
2023-05-02T15:21:57.673Z,14.10
2023-05-02T15:24:24.871Z,14.20
2023-05-02T15:26:52.162Z,14.30
2023-05-02T15:29:19.070Z,14.40
2023-05-02T15:31:45.994Z,14.30
2023-05-02T15:34:12.939Z,14.30
2023-05-02T15:36:40.843Z,14.40
2023-05-02T15:39:07.956Z,14.40
2023-05-02T15:41:34.878Z,14.50
2023-05-02T15:44:01.819Z,14.60
2023-05-02T15:46:28.784Z,14.50
2023-05-02T15:48:56.408Z,14.40
2023-05-02T15:51:23.224Z,14.50
2023-05-02T15:53:53.078Z,14.40
2023-05-02T15:56:21.728Z,14.40
2023-05-02T15:58:48.743Z,14.40
2023-05-02T16:01:15.713Z,14.30
2023-05-02T16:03:42.703Z,14.50
2023-05-02T16:06:10.080Z,14.70
2023-05-02T16:08:36.953Z,14.80
2023-05-02T16:11:03.838Z,14.60
2023-05-02T16:13:30.737Z,14.60
2023-05-02T16:15:57.867Z,14.50
2023-05-02T16:18:28.757Z,14.30
2023-05-02T16:21:01.073Z,14.30
2023-05-02T16:23:28.102Z,14.30
2023-05-02T16:25:59.456Z,14.20
2023-05-02T16:28:26.378Z,14.20
2023-05-02T16:30:53.253Z,14.20
2023-05-02T16:33:21.724Z,14.10
2023-05-02T16:35:49.023Z,14.00
2023-05-02T16:38:16.004Z,13.90
2023-05-02T16:40:42.881Z,13.80
2023-05-02T16:43:09.704Z,13.70
2023-05-02T16:45:36.698Z,13.50
2023-05-02T16:48:05.068Z,13.50
2023-05-02T16:50:32.099Z,13.30
2023-05-02T16:52:58.972Z,13.20
2023-05-02T16:55:25.900Z,13.20
2023-05-02T16:57:52.736Z,13.30
2023-05-02T17:00:19.989Z,13.20
2023-05-02T17:02:47.052Z,13.10
2023-05-02T17:05:14.137Z,13.20
2023-05-02T17:07:40.958Z,13.30
2023-05-02T17:10:08.292Z,13.30
2023-05-02T17:12:35.291Z,13.20
2023-05-02T17:15:04.034Z,13.20
2023-05-02T17:17:31.409Z,13.10
2023-05-02T17:19:58.856Z,13.00
2023-05-02T17:22:26.562Z,12.90
2023-05-02T17:24:54.894Z,12.70
2023-05-02T17:27:22.173Z,12.70
2023-05-02T17:29:49.697Z,12.60
2023-05-02T17:32:16.937Z,12.60
2023-05-02T17:34:45.016Z,12.60
2023-05-02T17:37:12.173Z,12.50
2023-05-02T17:39:39.343Z,12.60
2023-05-02T17:42:06.658Z,12.60
2023-05-02T17:44:37.018Z,12.40
2023-05-02T17:47:06.861Z,12.30
2023-05-02T17:49:35.882Z,12.30
2023-05-02T17:52:02.997Z,12.30
2023-05-02T17:54:30.241Z,12.30
2023-05-02T17:56:57.823Z,12.30
2023-05-02T17:59:24.978Z,12.10
2023-05-02T18:01:52.377Z,12.10
2023-05-02T18:04:23.144Z,12.10
2023-05-02T18:06:50.759Z,12.00
2023-05-02T18:09:17.957Z,11.90
2023-05-02T18:11:45.044Z,11.90
2023-05-02T18:14:12.372Z,11.80
2023-05-02T18:16:39.408Z,11.70
2023-05-02T18:21:34.925Z,11.60
2023-05-02T18:24:01.727Z,11.60
2023-05-02T18:26:28.705Z,11.60
2023-05-02T18:28:55.710Z,11.60
2023-05-02T18:31:22.639Z,11.40
2023-05-02T18:33:50.055Z,11.30
2023-05-02T18:36:23.660Z,11.30
2023-05-02T18:38:54.433Z,11.30
2023-05-02T18:41:21.331Z,11.30
2023-05-02T18:43:49.002Z,11.20
2023-05-02T18:46:15.978Z,11.20
2023-05-02T18:48:43.590Z,11.00
2023-05-02T18:51:10.875Z,10.90
2023-05-02T18:53:38.015Z,10.90
2023-05-02T18:56:12.374Z,10.70
2023-05-02T18:58:39.229Z,10.70
2023-05-02T19:01:16.884Z,10.60
2023-05-02T19:03:44.221Z,10.50
2023-05-02T19:06:11.639Z,10.40
2023-05-02T19:08:40.382Z,10.40
2023-05-02T19:11:07.608Z,10.40
2023-05-02T19:13:34.556Z,10.30
2023-05-02T19:16:01.585Z,10.20
2023-05-02T19:18:28.545Z,10.20
2023-05-02T19:24:00.556Z,10.20
2023-05-02T19:26:27.375Z,10.00
2023-05-02T19:28:54.258Z,9.90
2023-05-02T19:31:21.519Z,9.90
2023-05-02T19:33:55.017Z,9.80
2023-05-02T19:36:23.620Z,9.80
2023-05-02T19:38:53.849Z,9.70
2023-05-02T19:41:24.837Z,9.70
2023-05-02T19:43:52.036Z,9.70
2023-05-02T19:46:19.661Z,9.60
2023-05-02T19:48:46.595Z,9.60
2023-05-02T19:51:13.803Z,9.50
2023-05-02T19:53:40.617Z,9.40
2023-05-02T19:56:07.535Z,9.30
2023-05-02T19:58:34.894Z,9.40
2023-05-02T20:01:01.820Z,9.30
2023-05-02T20:03:29.197Z,9.30
2023-05-02T20:05:57.684Z,9.30
2023-05-02T20:08:28.251Z,9.20
2023-05-02T20:10:56.841Z,9.20
2023-05-02T20:13:23.685Z,9.10
2023-05-02T20:15:52.002Z,9.10
2023-05-02T20:18:19.279Z,9.10
2023-05-02T20:20:46.363Z,9.00
2023-05-02T20:23:13.686Z,9.00
2023-05-02T20:25:42.642Z,8.90
2023-05-02T20:28:10.078Z,8.80
2023-05-02T20:30:39.215Z,8.80
2023-05-02T20:33:14.661Z,8.80
2023-05-02T20:35:42.247Z,8.90
2023-05-02T20:38:10.037Z,8.90
2023-05-02T20:40:39.928Z,8.90
2023-05-02T20:43:06.903Z,8.80
2023-05-02T20:45:33.950Z,8.80
2023-05-02T20:48:00.916Z,8.70
2023-05-02T20:50:28.459Z,8.70
2023-05-02T20:52:55.629Z,8.70
2023-05-02T20:55:23.146Z,8.60
2023-05-02T20:57:53.372Z,8.60
2023-05-02T21:00:22.563Z,8.50
2023-05-02T21:02:49.778Z,8.50
2023-05-02T21:05:16.913Z,8.40
2023-05-02T21:07:44.932Z,8.50
2023-05-02T21:10:11.999Z,8.30
2023-05-02T21:12:38.840Z,8.30
2023-05-02T21:15:07.414Z,8.30
2023-05-02T21:17:34.393Z,8.20
2023-05-02T21:20:01.637Z,8.10
2023-05-02T21:22:28.800Z,8.10
2023-05-02T21:24:56.065Z,8.10
2023-05-02T21:27:23.240Z,8.10
2023-05-02T21:29:50.216Z,8.00
2023-05-02T21:32:17.139Z,7.90
2023-05-02T21:34:44.030Z,8.00
2023-05-02T21:37:11.061Z,7.90
2023-05-02T21:39:39.103Z,7.90
2023-05-02T21:42:06.155Z,7.80
2023-05-02T21:44:34.475Z,7.80
2023-05-02T21:47:01.356Z,7.90
2023-05-02T21:49:30.506Z,7.80
2023-05-02T21:51:58.518Z,7.70
2023-05-02T21:54:26.478Z,7.60
2023-05-02T21:56:54.439Z,7.60
2023-05-02T21:59:21.467Z,7.60
2023-05-02T22:01:48.406Z,7.50
2023-05-02T22:04:15.702Z,7.50
2023-05-02T22:06:43.121Z,7.40
2023-05-02T22:09:10.508Z,7.30
2023-05-02T22:11:37.447Z,7.30
2023-05-02T22:14:04.354Z,7.30
2023-05-02T22:16:31.347Z,7.40
2023-05-02T22:18:58.445Z,7.40
2023-05-02T22:21:25.393Z,7.40
2023-05-02T22:23:52.186Z,7.30
2023-05-02T22:26:19.493Z,7.30
2023-05-02T22:28:46.437Z,7.20
2023-05-02T22:31:14.503Z,7.20
2023-05-02T22:33:42.882Z,7.10
2023-05-02T22:36:09.750Z,7.10
2023-05-02T22:38:36.639Z,7.10
2023-05-02T22:41:03.481Z,7.10
2023-05-02T22:43:30.545Z,7.10
2023-05-02T22:45:59.053Z,7.00
2023-05-02T22:48:26.133Z,7.00
2023-05-02T22:50:53.353Z,7.00
2023-05-02T22:53:21.801Z,7.00
2023-05-02T22:55:49.032Z,7.00
2023-05-02T22:58:16.122Z,7.00
2023-05-02T23:00:43.415Z,6.90
2023-05-02T23:03:11.588Z,6.80
2023-05-02T23:05:38.850Z,6.80
2023-05-02T23:08:05.709Z,6.80
2023-05-02T23:10:32.589Z,6.80
2023-05-02T23:12:59.446Z,6.70
2023-05-02T23:15:26.312Z,6.70
2023-05-02T23:17:53.323Z,6.60
2023-05-02T23:20:22.908Z,6.50
2023-05-02T23:22:49.792Z,6.30
2023-05-02T23:25:16.791Z,6.20
2023-05-02T23:27:43.759Z,6.10
2023-05-02T23:30:11.677Z,5.90
2023-05-02T23:32:39.667Z,5.90
2023-05-02T23:35:07.171Z,5.70
2023-05-02T23:37:34.223Z,5.70
2023-05-02T23:40:01.505Z,5.70
2023-05-02T23:42:30.253Z,5.80
2023-05-02T23:44:58.148Z,5.80
2023-05-02T23:47:28.117Z,5.90
2023-05-02T23:49:55.186Z,5.90
2023-05-02T23:52:22.077Z,5.90
2023-05-02T23:54:49.020Z,5.90
2023-05-02T23:57:15.877Z,5.90
2023-05-02T23:59:42.770Z,5.90
